Time;durP1;ratioP1;P1;durP2;ratioP2;P2;SDS_P1;SDS_P2;PMS_P1;PMS_P2;Temp;Humidity;BMP_temperature;BMP_pressure;BME280_temperature;BME280_humidity;BME280_pressure;Samples;Min_cycle;Max_cycle;Signal;HPM_P1;HPM_P2
2023/10/15 00:01:35;;;;;;;6.07;1.48;;;;;;;;;;4976791;28;20496;-77
2023/10/15 00:04:02;;;;;;;2.83;1.30;;;;;;;;;;4979244;28;20042;-75
2023/10/15 00:06:27;;;;;;;1.45;1.20;;;;;;;;;;4979287;28;20054;-75
2023/10/15 00:08:53;;;;;;;9.70;1.52;;;;;;;;;;4980029;28;20046;-76
2023/10/15 00:11:20;;;;;;;3.65;1.60;;;;;;;;;;4980862;28;20958;-75
2023/10/15 00:13:46;;;;;;;6.55;1.73;;;;;;;;;;4979103;28;20048;-75
2023/10/15 00:16:21;;;;;;;6.68;1.48;;;;;;;;;;4988382;28;20046;-76
2023/10/15 00:18:47;;;;;;;4.25;1.17;;;;;;;;;;4976898;28;20042;-73
2023/10/15 00:21:13;;;;;;;2.20;1.17;;;;;;;;;;4979277;28;20587;-74
2023/10/15 00:23:44;;;;;;;8.40;1.70;;;;;;;;;;4978392;28;20073;-75
2023/10/15 00:26:14;;;;;;;2.03;1.42;;;;;;;;;;4977955;28;20058;-75
2023/10/15 00:28:45;;;;;;;3.40;1.70;;;;;;;;;;4976659;28;20048;-75
2023/10/15 00:31:14;;;;;;;3.20;1.38;;;;;;;;;;4977227;28;20050;-76
2023/10/15 00:33:42;;;;;;;1.95;1.40;;;;;;;;;;4960221;28;20238;-72
2023/10/15 00:36:12;;;;;;;3.20;1.35;;;;;;;;;;4979343;28;20078;-74
2023/10/15 00:38:38;;;;;;;4.38;1.80;;;;;;;;;;4980575;28;20050;-75
2023/10/15 00:41:10;;;;;;;12.07;1.85;;;;;;;;;;4983719;28;20046;-74
2023/10/15 00:43:35;;;;;;;3.22;1.60;;;;;;;;;;4981860;28;20054;-76
2023/10/15 00:46:09;;;;;;;4.07;1.40;;;;;;;;;;4982277;28;20507;-73
2023/10/15 00:48:36;;;;;;;3.85;2.15;;;;;;;;;;4964327;28;20054;-75
2023/10/15 00:51:08;;;;;;;4.68;1.70;;;;;;;;;;4979595;28;20137;-75
2023/10/15 00:53:35;;;;;;;4.55;1.20;;;;;;;;;;4979774;28;20169;-76
2023/10/15 00:56:04;;;;;;;8.88;1.50;;;;;;;;;;4981963;28;20054;-73
2023/10/15 01:01:20;;;;;;;5.15;1.55;;;;;;;;;;4981754;28;20686;-74
2023/10/15 01:03:52;;;;;;;3.78;1.20;;;;;;;;;;4980213;28;20156;-75
2023/10/15 01:06:26;;;;;;;5.15;1.70;;;;;;;;;;4980756;28;20042;-75
2023/10/15 01:08:51;;;;;;;3.83;1.60;;;;;;;;;;4949044;28;20466;-74
2023/10/15 01:11:19;;;;;;;4.55;1.40;;;;;;;;;;4996297;28;20514;-74
2023/10/15 01:13:45;;;;;;;5.78;1.50;;;;;;;;;;4985030;28;20046;-75
2023/10/15 01:16:18;;;;;;;4.80;1.48;;;;;;;;;;4964195;28;20050;-74
2023/10/15 01:18:45;;;;;;;7.75;1.77;;;;;;;;;;4979463;28;20406;-74
2023/10/15 01:21:13;;;;;;;4.15;1.35;;;;;;;;;;4980275;28;20459;-75
2023/10/15 01:23:45;;;;;;;7.35;1.85;;;;;;;;;;4977753;28;20085;-76
2023/10/15 01:26:15;;;;;;;3.38;1.35;;;;;;;;;;4978360;28;20054;-75
2023/10/15 01:28:42;;;;;;;3.15;1.27;;;;;;;;;;4979749;28;20098;-75
2023/10/15 01:31:08;;;;;;;9.38;1.90;;;;;;;;;;4979608;28;20674;-75
2023/10/15 01:33:49;;;;;;;4.53;1.23;;;;;;;;;;4977727;28;20061;-75
2023/10/15 01:36:19;;;;;;;7.97;1.80;;;;;;;;;;4980308;28;20057;-75
2023/10/15 01:38:45;;;;;;;4.13;1.55;;;;;;;;;;4963591;28;20084;-74
2023/10/15 01:41:16;;;;;;;3.75;1.40;;;;;;;;;;4996637;28;20509;-75
2023/10/15 01:43:50;;;;;;;5.72;1.27;;;;;;;;;;4963161;28;20046;-74
2023/10/15 01:49:06;;;;;;;4.45;1.88;;;;;;;;;;4963874;28;20048;-75
2023/10/15 01:51:39;;;;;;;4.03;1.65;;;;;;;;;;4978674;28;20051;-73
2023/10/15 01:54:09;;;;;;;6.47;1.58;;;;;;;;;;4980072;28;20109;-76
2023/10/15 01:56:44;;;;;;;3.50;1.13;;;;;;;;;;4963109;28;20070;-74
2023/10/15 01:59:16;;;;;;;4.40;1.20;;;;;;;;;;4979162;28;20120;-73
2023/10/15 02:01:49;;;;;;;11.85;1.63;;;;;;;;;;4978812;28;20661;-75
2023/10/15 02:06:51;;;;;;;3.22;1.13;;;;;;;;;;4980425;28;20049;-77
2023/10/15 02:09:21;;;;;;;6.85;1.30;;;;;;;;;;4980476;28;20058;-74
2023/10/15 02:11:53;;;;;;;9.50;1.60;;;;;;;;;;4979922;28;20162;-74
2023/10/15 02:14:23;;;;;;;4.07;1.20;;;;;;;;;;4980714;28;20053;-77
2023/10/15 02:16:49;;;;;;;2.10;1.55;;;;;;;;;;4979883;28;20050;-76
2023/10/15 02:19:28;;;;;;;2.83;1.05;;;;;;;;;;4995608;28;20042;-75
2023/10/15 02:21:54;;;;;;;7.47;1.83;;;;;;;;;;4963052;28;20511;-75
2023/10/15 02:24:19;;;;;;;4.85;1.65;;;;;;;;;;4980700;28;20057;-74
2023/10/15 02:26:45;;;;;;;6.88;1.52;;;;;;;;;;4995382;28;20046;-76
2023/10/15 02:31:58;;;;;;;3.80;1.25;;;;;;;;;;4978469;28;20070;-76
2023/10/15 02:34:27;;;;;;;3.83;1.70;;;;;;;;;;4963521;28;20050;-75
2023/10/15 02:36:54;;;;;;;4.00;1.30;;;;;;;;;;4995097;28;20046;-73
2023/10/15 02:39:22;;;;;;;3.58;1.35;;;;;;;;;;4966027;28;20072;-76
2023/10/15 02:41:47;;;;;;;5.60;1.25;;;;;;;;;;4979825;28;22121;-74
2023/10/15 02:44:13;;;;;;;7.88;1.67;;;;;;;;;;4979189;28;20050;-75
2023/10/15 02:46:47;;;;;;;4.45;1.33;;;;;;;;;;4994208;28;20449;-73
2023/10/15 02:49:17;;;;;;;6.35;1.05;;;;;;;;;;4994938;28;20061;-75
2023/10/15 02:51:45;;;;;;;6.32;1.67;;;;;;;;;;4977460;28;20141;-76
2023/10/15 02:54:27;;;;;;;3.10;1.25;;;;;;;;;;4991874;28;20034;-75
2023/10/15 02:56:56;;;;;;;2.00;1.27;;;;;;;;;;4978413;28;20342;-75
2023/10/15 02:59:23;;;;;;;4.75;1.20;;;;;;;;;;4962081;28;20046;-76
2023/10/15 03:01:54;;;;;;;5.18;1.50;;;;;;;;;;4993086;28;20304;-77
2023/10/15 03:04:32;;;;;;;4.55;1.17;;;;;;;;;;4982060;28;20133;-76
2023/10/15 03:07:16;;;;;;;5.50;1.65;;;;;;;;;;4967686;28;20068;-75
2023/10/15 03:09:43;;;;;;;5.95;1.75;;;;;;;;;;4981952;28;20137;-74
2023/10/15 03:12:09;;;;;;;3.88;1.30;;;;;;;;;;4978737;28;20178;-76
2023/10/15 03:14:34;;;;;;;3.75;1.35;;;;;;;;;;4979748;28;20062;-77
2023/10/15 03:17:00;;;;;;;5.00;1.50;;;;;;;;;;4980615;28;20488;-75
2023/10/15 03:19:25;;;;;;;1.58;1.10;;;;;;;;;;4995510;28;20502;-76
2023/10/15 03:21:57;;;;;;;4.80;1.42;;;;;;;;;;4978056;28;20046;-77
2023/10/15 03:24:22;;;;;;;6.63;1.25;;;;;;;;;;4979172;28;20153;-76
2023/10/15 03:26:48;;;;;;;7.70;1.33;;;;;;;;;;4994124;28;20153;-76
2023/10/15 03:29:14;;;;;;;1.95;1.20;;;;;;;;;;4979727;28;20076;-76
2023/10/15 03:31:46;;;;;;;5.57;1.00;;;;;;;;;;4976512;28;20737;-76
2023/10/15 03:36:48;;;;;;;8.27;1.35;;;;;;;;;;4975799;28;20046;-74
2023/10/15 03:44:51;;;;;;;2.45;1.02;;;;;;;;;;4977948;28;20050;-75
2023/10/15 03:47:22;;;;;;;3.55;1.42;;;;;;;;;;4977564;28;20113;-76
2023/10/15 03:49:51;;;;;;;2.75;1.10;;;;;;;;;;4977371;28;20096;-76
2023/10/15 03:52:22;;;;;;;4.10;0.80;;;;;;;;;;4963221;28;20092;-75
2023/10/15 03:54:49;;;;;;;2.90;0.93;;;;;;;;;;4979718;28;20050;-76
2023/10/15 03:57:17;;;;;;;5.88;1.17;;;;;;;;;;4976607;28;20137;-76
2023/10/15 03:59:45;;;;;;;2.28;1.20;;;;;;;;;;4977994;28;20540;-77
2023/10/15 04:02:29;;;;;;;1.75;1.05;;;;;;;;;;4978757;28;20120;-77
2023/10/15 04:05:01;;;;;;;3.55;1.15;;;;;;;;;;4976383;28;20057;-77
2023/10/15 04:07:30;;;;;;;4.13;1.67;;;;;;;;;;4977932;28;20216;-77
2023/10/15 04:09:59;;;;;;;4.82;1.20;;;;;;;;;;4978650;28;20065;-78
2023/10/15 04:12:29;;;;;;;4.60;0.98;;;;;;;;;;4979093;28;20073;-76
2023/10/15 04:14:56;;;;;;;3.33;1.30;;;;;;;;;;4985305;28;20197;-77
2023/10/15 04:17:22;;;;;;;7.20;1.15;;;;;;;;;;4984396;28;20172;-79
2023/10/15 04:19:47;;;;;;;4.18;1.02;;;;;;;;;;4982681;28;20515;-76
2023/10/15 04:22:16;;;;;;;6.13;1.40;;;;;;;;;;4999972;28;20053;-76
2023/10/15 04:24:47;;;;;;;3.65;1.40;;;;;;;;;;4966892;28;20042;-76
2023/10/15 04:27:23;;;;;;;4.05;1.38;;;;;;;;;;4969305;28;20763;-74
2023/10/15 04:29:55;;;;;;;6.63;1.23;;;;;;;;;;4984030;28;21703;-76
2023/10/15 04:32:45;;;;;;;;;;;;;;;;;;4983726;28;20058;-76
2023/10/15 04:35:17;;;;;;;4.63;1.40;;;;;;;;;;4986591;28;19921;-74
2023/10/15 04:37:44;;;;;;;9.48;1.23;;;;;;;;;;4982846;28;20045;-75
2023/10/15 04:40:11;;;;;;;5.65;1.50;;;;;;;;;;4969267;28;20046;-75
2023/10/15 04:42:41;;;;;;;2.90;1.13;;;;;;;;;;4984855;28;20050;-74
2023/10/15 04:45:35;;;;;;;5.45;1.10;;;;;;;;;;4979177;28;20046;-75
2023/10/15 04:48:02;;;;;;;3.00;1.05;;;;;;;;;;4983198;28;20046;-76
2023/10/15 04:50:29;;;;;;;3.88;1.23;;;;;;;;;;4984524;28;20061;-76
2023/10/15 04:53:13;;;;;;;4.82;0.95;;;;;;;;;;4984242;28;20597;-76
2023/10/15 04:55:40;;;;;;;8.85;1.55;;;;;;;;;;4956026;28;20061;-76
2023/10/15 04:58:05;;;;;;;4.35;1.50;;;;;;;;;;4968644;28;20057;-76
2023/10/15 05:00:33;;;;;;;2.88;1.13;;;;;;;;;;4984807;28;20050;-76
2023/10/15 05:02:58;;;;;;;2.65;0.73;;;;;;;;;;4983680;28;20108;-76
2023/10/15 05:05:25;;;;;;;1.52;0.93;;;;;;;;;;4984803;28;20153;-76
2023/10/15 05:07:50;;;;;;;6.63;1.52;;;;;;;;;;4982966;28;20153;-76
2023/10/15 05:10:16;;;;;;;1.98;1.20;;;;;;;;;;4984771;28;20506;-75
2023/10/15 05:12:41;;;;;;;1.85;1.10;;;;;;;;;;5000427;28;20054;-75
2023/10/15 05:15:13;;;;;;;3.28;1.20;;;;;;;;;;4982317;28;20042;-74
2023/10/15 05:17:42;;;;;;;2.17;1.10;;;;;;;;;;4981868;28;20043;-73
2023/10/15 05:20:11;;;;;;;3.97;0.88;;;;;;;;;;4980480;28;20547;-74
2023/10/15 05:22:37;;;;;;;3.53;0.93;;;;;;;;;;4982456;28;20530;-73
2023/10/15 05:25:04;;;;;;;3.22;1.23;;;;;;;;;;4980161;28;20042;-74
2023/10/15 05:27:32;;;;;;;1.88;0.90;;;;;;;;;;4980468;28;20046;-74
2023/10/15 05:29:58;;;;;;;1.70;1.20;;;;;;;;;;4979484;28;20103;-75
2023/10/15 05:32:24;;;;;;;2.17;1.40;;;;;;;;;;4978555;28;20553;-74
2023/10/15 05:34:49;;;;;;;6.65;1.10;;;;;;;;;;4979436;28;20046;-75
2023/10/15 05:37:16;;;;;;;5.53;1.08;;;;;;;;;;4974812;28;20621;-75
2023/10/15 05:39:42;;;;;;;4.53;1.20;;;;;;;;;;4978225;28;20052;-77
2023/10/15 05:42:07;;;;;;;1.67;1.00;;;;;;;;;;4979134;28;20411;-76
2023/10/15 05:44:34;;;;;;;4.45;1.48;;;;;;;;;;4980815;28;20390;-76
2023/10/15 05:47:00;;;;;;;5.07;1.30;;;;;;;;;;4977322;28;20473;-75
2023/10/15 05:49:26;;;;;;;4.38;1.13;;;;;;;;;;4979609;28;20116;-76
2023/10/15 05:51:51;;;;;;;1.58;0.75;;;;;;;;;;4992299;28;20109;-76
2023/10/15 05:54:17;;;;;;;3.92;1.38;;;;;;;;;;4952244;28;20104;-77
2023/10/15 05:56:42;;;;;;;2.65;1.00;;;;;;;;;;4977987;28;20049;-75
2023/10/15 05:59:08;;;;;;;3.22;1.23;;;;;;;;;;4979369;28;20042;-76
2023/10/15 06:01:33;;;;;;;4.20;1.38;;;;;;;;;;4994467;28;20941;-76
2023/10/15 06:03:59;;;;;;;5.32;1.30;;;;;;;;;;4976700;28;20046;-76
2023/10/15 06:06:25;;;;;;;4.10;1.20;;;;;;;;;;4974119;28;20099;-76
2023/10/15 06:08:53;;;;;;;3.08;1.20;;;;;;;;;;4975513;28;20594;-75
2023/10/15 06:11:19;;;;;;;2.80;1.15;;;;;;;;;;4977679;28;20042;-76
2023/10/15 06:13:44;;;;;;;4.40;1.60;;;;;;;;;;4976035;28;20415;-76
2023/10/15 06:16:10;;;;;;;6.13;1.25;;;;;;;;;;4982581;28;20042;-76
2023/10/15 06:18:35;;;;;;;2.78;1.17;;;;;;;;;;4977826;28;20053;-75
2023/10/15 06:21:01;;;;;;;2.78;1.08;;;;;;;;;;4976083;28;20050;-76
2023/10/15 06:23:26;;;;;;;2.50;1.02;;;;;;;;;;4976682;28;20048;-76
2023/10/15 06:25:51;;;;;;;2.20;1.08;;;;;;;;;;4974981;28;20186;-75
2023/10/15 06:28:17;;;;;;;2.35;1.08;;;;;;;;;;4978342;28;20046;-76
2023/10/15 06:30:43;;;;;;;1.98;0.90;;;;;;;;;;4976061;28;20105;-75
2023/10/15 06:33:09;;;;;;;4.07;0.85;;;;;;;;;;4978637;28;20046;-75
2023/10/15 06:35:35;;;;;;;3.28;0.90;;;;;;;;;;4976733;28;20042;-75
2023/10/15 06:38:01;;;;;;;2.22;1.05;;;;;;;;;;4961263;28;20602;-76
2023/10/15 06:40:28;;;;;;;4.18;1.20;;;;;;;;;;4974288;28;20057;-78
2023/10/15 06:43:03;;;;;;;1.27;0.75;;;;;;;;;;4972185;28;20042;-77
2023/10/15 06:45:29;;;;;;;3.13;1.10;;;;;;;;;;4975268;28;20046;-76
2023/10/15 06:47:55;;;;;;;3.65;1.23;;;;;;;;;;4975473;28;20050;-76
2023/10/15 06:50:22;;;;;;;3.58;1.10;;;;;;;;;;4977176;28;20419;-76
2023/10/15 06:52:47;;;;;;;9.05;1.10;;;;;;;;;;4975593;28;20038;-76
2023/10/15 06:55:19;;;;;;;3.53;1.10;;;;;;;;;;4976781;28;20300;-76
2023/10/15 06:57:46;;;;;;;4.95;0.85;;;;;;;;;;4971706;28;20054;-77
2023/10/15 07:00:12;;;;;;;6.70;1.42;;;;;;;;;;4974974;28;20046;-75
2023/10/15 07:02:38;;;;;;;1.52;1.05;;;;;;;;;;4975939;28;20049;-75
2023/10/15 07:05:05;;;;;;;3.35;1.27;;;;;;;;;;4975945;28;22334;-75
2023/10/15 07:07:33;;;;;;;2.22;0.95;;;;;;;;;;4975213;28;20054;-75
2023/10/15 07:10:06;;;;;;;3.30;0.90;;;;;;;;;;4975317;28;20050;-76
2023/10/15 07:12:34;;;;;;;4.00;1.10;;;;;;;;;;4977499;28;20042;-76
2023/10/15 07:15:01;;;;;;;3.33;0.90;;;;;;;;;;4975166;28;20057;-76
2023/10/15 07:17:26;;;;;;;4.05;0.90;;;;;;;;;;4975806;28;20459;-76
2023/10/15 07:19:52;;;;;;;0.73;0.73;;;;;;;;;;4975274;28;20081;-76
2023/10/15 07:22:17;;;;;;;3.47;1.00;;;;;;;;;;4977352;28;20132;-76
2023/10/15 07:24:43;;;;;;;2.28;1.00;;;;;;;;;;4977336;28;20082;-76
2023/10/15 07:27:08;;;;;;;3.75;0.98;;;;;;;;;;4977927;28;20042;-78
2023/10/15 07:29:38;;;;;;;3.33;1.13;;;;;;;;;;4977108;28;20399;-77
2023/10/15 07:32:04;;;;;;;5.07;1.17;;;;;;;;;;4963841;28;20137;-79
2023/10/15 07:34:29;;;;;;;3.33;1.00;;;;;;;;;;4981830;28;20181;-79
2023/10/15 07:36:58;;;;;;;1.67;0.82;;;;;;;;;;4978285;28;20145;-78
2023/10/15 07:39:25;;;;;;;2.25;1.13;;;;;;;;;;4980993;28;20048;-80
2023/10/15 07:41:51;;;;;;;3.05;1.10;;;;;;;;;;4978989;28;20054;-79
2023/10/15 07:44:18;;;;;;;1.73;1.02;;;;;;;;;;4979332;28;20672;-81
2023/10/15 07:46:43;;;;;;;3.78;1.52;;;;;;;;;;4980944;28;20081;-80
2023/10/15 07:49:12;;;;;;;2.92;0.90;;;;;;;;;;4982483;28;20339;-81
2023/10/15 07:51:38;;;;;;;2.03;0.95;;;;;;;;;;4993719;28;20757;-84
2023/10/15 07:54:04;;;;;;;2.35;0.75;;;;;;;;;;4988561;28;20046;-81
2023/10/15 07:56:31;;;;;;;2.25;1.15;;;;;;;;;;4964145;28;20201;-77
2023/10/15 07:58:57;;;;;;;4.47;1.05;;;;;;;;;;4979113;28;20042;-78
2023/10/15 08:01:25;;;;;;;2.00;0.90;;;;;;;;;;4977907;28;20129;-80
2023/10/15 08:03:50;;;;;;;2.65;0.75;;;;;;;;;;4976574;28;20058;-78
2023/10/15 08:06:16;;;;;;;2.70;0.82;;;;;;;;;;4980028;28;20539;-82
2023/10/15 08:08:42;;;;;;;2.55;0.90;;;;;;;;;;4982659;28;20860;-83
2023/10/15 08:11:08;;;;;;;5.20;0.85;;;;;;;;;;4983162;28;20057;-80
2023/10/15 08:13:33;;;;;;;3.00;0.75;;;;;;;;;;4967420;28;20042;-78
2023/10/15 08:15:59;;;;;;;2.75;0.88;;;;;;;;;;4978674;28;20050;-77
2023/10/15 08:18:24;;;;;;;3.53;0.90;;;;;;;;;;4978495;28;21029;-79
2023/10/15 08:20:50;;;;;;;4.15;0.98;;;;;;;;;;4979144;28;20066;-81
2023/10/15 08:23:15;;;;;;;2.70;0.88;;;;;;;;;;4980713;28;20100;-81
2023/10/15 08:25:41;;;;;;;2.67;1.00;;;;;;;;;;4979622;28;20046;-78
2023/10/15 08:28:07;;;;;;;3.60;1.00;;;;;;;;;;4955277;28;20099;-79
2023/10/15 08:30:33;;;;;;;1.55;0.75;;;;;;;;;;4980546;28;20096;-80
2023/10/15 08:32:58;;;;;;;2.40;0.80;;;;;;;;;;4978077;28;20046;-80
2023/10/15 08:35:24;;;;;;;1.63;0.90;;;;;;;;;;4980266;28;20447;-77
2023/10/15 08:37:49;;;;;;;1.40;0.85;;;;;;;;;;4980120;28;20100;-83
2023/10/15 08:40:17;;;;;;;3.30;1.10;;;;;;;;;;4980340;28;20065;-80
2023/10/15 08:43:05;;;;;;;1.02;0.90;;;;;;;;;;4978218;28;20145;-75
2023/10/15 08:45:33;;;;;;;4.57;0.85;;;;;;;;;;4979246;28;20043;-81
2023/10/15 08:48:00;;;;;;;2.67;1.27;;;;;;;;;;4978031;28;20058;-79
2023/10/15 08:50:29;;;;;;;1.88;0.70;;;;;;;;;;4977145;28;20042;-73
2023/10/15 08:52:56;;;;;;;2.53;1.00;;;;;;;;;;4978199;28;20046;-76
2023/10/15 08:55:24;;;;;;;2.35;0.90;;;;;;;;;;4977706;28;20555;-75
2023/10/15 08:57:54;;;;;;;3.83;0.80;;;;;;;;;;4977380;28;20513;-75
2023/10/15 09:00:27;;;;;;;2.50;1.10;;;;;;;;;;4980916;28;20050;-72
2023/10/15 09:02:57;;;;;;;1.67;0.60;;;;;;;;;;4981259;28;20080;-75
2023/10/15 09:05:30;;;;;;;2.75;0.93;;;;;;;;;;4981661;28;20185;-75
2023/10/15 09:07:56;;;;;;;1.20;0.65;;;;;;;;;;4980998;28;20050;-76
2023/10/15 09:10:22;;;;;;;5.45;0.77;;;;;;;;;;4981993;28;20134;-75
2023/10/15 09:12:51;;;;;;;5.00;0.80;;;;;;;;;;4982239;28;20046;-73
2023/10/15 09:15:17;;;;;;;0.50;0.50;;;;;;;;;;4978401;28;20042;-73
2023/10/15 09:17:56;;;;;;;3.42;1.15;;;;;;;;;;4976542;28;20046;-71
2023/10/15 09:20:32;;;;;;;1.08;0.70;;;;;;;;;;4979656;28;20061;-75
2023/10/15 09:22:59;;;;;;;1.35;0.68;;;;;;;;;;4978924;28;20046;-72
2023/10/15 09:25:26;;;;;;;2.25;0.60;;;;;;;;;;4980422;28;20050;-71
2023/10/15 09:27:56;;;;;;;5.88;0.93;;;;;;;;;;4976614;28;20546;-74
2023/10/15 09:30:22;;;;;;;1.35;0.60;;;;;;;;;;4978943;28;20480;-72
2023/10/15 09:32:48;;;;;;;2.72;0.93;;;;;;;;;;4993779;28;20927;-71
2023/10/15 09:35:14;;;;;;;1.85;0.60;;;;;;;;;;4979741;28;20081;-74
2023/10/15 09:37:41;;;;;;;2.05;0.20;;;;;;;;;;4982894;28;20051;-72
2023/10/15 09:40:10;;;;;;;0.45;0.35;;;;;;;;;;4979494;28;20097;-72
2023/10/15 09:42:39;;;;;;;1.55;0.57;;;;;;;;;;4978329;28;20054;-71
2023/10/15 09:45:06;;;;;;;2.88;0.88;;;;;;;;;;4979371;28;20058;-73
2023/10/15 09:47:39;;;;;;;4.00;1.10;;;;;;;;;;4979136;28;20145;-75
2023/10/15 09:50:09;;;;;;;0.68;0.60;;;;;;;;;;4977180;28;20104;-75
2023/10/15 09:52:37;;;;;;;3.22;0.60;;;;;;;;;;4979015;28;20090;-74
2023/10/15 09:55:11;;;;;;;0.32;0.32;;;;;;;;;;4977465;28;20054;-75
2023/10/15 09:57:38;;;;;;;2.53;0.50;;;;;;;;;;4976931;28;20529;-75
2023/10/15 10:00:10;;;;;;;0.47;0.47;;;;;;;;;;4978521;28;20042;-75
2023/10/15 10:02:44;;;;;;;2.38;0.55;;;;;;;;;;4960697;28;20050;-73
2023/10/15 10:05:41;;;;;;;0.55;0.55;;;;;;;;;;4977523;28;20141;-76
2023/10/15 10:08:19;;;;;;;1.08;0.70;;;;;;;;;;4989879;28;20054;-76
2023/10/15 10:11:00;;;;;;;1.10;0.70;;;;;;;;;;4975234;28;20156;-77
2023/10/15 10:13:34;;;;;;;2.35;0.50;;;;;;;;;;4965503;28;26465;-74
2023/10/15 10:16:04;;;;;;;1.20;0.77;;;;;;;;;;4977726;28;20046;-74
2023/10/15 10:18:33;;;;;;;1.10;0.70;;;;;;;;;;4976636;28;20132;-74
2023/10/15 10:21:07;;;;;;;1.85;0.75;;;;;;;;;;4978694;28;20042;-75
2023/10/15 10:23:33;;;;;;;2.05;0.60;;;;;;;;;;4977793;28;20093;-75
2023/10/15 10:25:58;;;;;;;2.80;1.08;;;;;;;;;;4973378;28;20053;-75
2023/10/15 10:28:25;;;;;;;1.65;1.00;;;;;;;;;;4977517;28;20050;-75
2023/10/15 10:30:58;;;;;;;1.20;0.60;;;;;;;;;;4977114;28;20053;-76
2023/10/15 10:33:42;;;;;;;4.93;0.80;;;;;;;;;;4978117;28;20043;-76
2023/10/15 10:36:12;;;;;;;1.92;0.90;;;;;;;;;;4971325;28;20057;-76
2023/10/15 10:38:40;;;;;;;2.08;0.85;;;;;;;;;;4972490;28;20038;-77
2023/10/15 10:41:13;;;;;;;3.20;1.15;;;;;;;;;;4975252;28;20050;-76
2023/10/15 10:43:45;;;;;;;3.53;2.05;;;;;;;;;;4975793;28;20109;-76
2023/10/15 10:46:21;;;;;;;1.60;1.05;;;;;;;;;;4975380;28;20042;-75
2023/10/15 10:49:13;;;;;;;0.98;0.88;;;;;;;;;;4977637;28;20057;-76
2023/10/15 10:51:40;;;;;;;1.35;1.00;;;;;;;;;;4978196;28;20038;-73
2023/10/15 10:54:05;;;;;;;2.22;1.00;;;;;;;;;;4977723;28;20685;-75
2023/10/15 10:56:40;;;;;;;0.85;0.77;;;;;;;;;;4976115;28;20137;-76
2023/10/15 10:59:10;;;;;;;2.95;0.93;;;;;;;;;;4961654;28;20054;-75
2023/10/15 11:01:37;;;;;;;1.23;0.90;;;;;;;;;;4974380;28;20085;-77
2023/10/15 11:04:10;;;;;;;3.53;1.00;;;;;;;;;;4976706;28;20057;-76
2023/10/15 11:06:37;;;;;;;1.65;0.80;;;;;;;;;;4948734;28;20077;-78
2023/10/15 11:09:15;;;;;;;0.70;0.70;;;;;;;;;;4976820;28;20050;-78
2023/10/15 11:12:04;;;;;;;2.13;1.02;;;;;;;;;;4976801;28;20038;-77
2023/10/15 11:14:29;;;;;;;1.15;0.80;;;;;;;;;;4961705;28;20483;-77
2023/10/15 11:16:56;;;;;;;2.25;1.10;;;;;;;;;;4977255;28;20065;-75
2023/10/15 11:19:23;;;;;;;1.83;1.00;;;;;;;;;;4960371;28;20100;-76
2023/10/15 11:21:51;;;;;;;4.53;2.83;;;;;;;;;;4973608;28;20047;-76
2023/10/15 11:24:18;;;;;;;4.32;2.83;;;;;;;;;;4978106;28;20157;-75
2023/10/15 11:26:44;;;;;;;2.40;2.15;;;;;;;;;;4958223;28;20054;-77
2023/10/15 11:29:12;;;;;;;5.10;2.85;;;;;;;;;;4972557;28;20042;-75
2023/10/15 11:31:44;;;;;;;2.30;1.23;;;;;;;;;;4960291;28;20054;-76
2023/10/15 11:34:12;;;;;;;2.65;1.20;;;;;;;;;;4975978;28;20153;-76
2023/10/15 11:36:39;;;;;;;3.33;1.38;;;;;;;;;;4976747;28;20137;-76
2023/10/15 11:39:08;;;;;;;0.90;0.90;;;;;;;;;;4975083;28;20049;-76
2023/10/15 11:41:38;;;;;;;0.93;0.93;;;;;;;;;;4976629;28;20138;-76
2023/10/15 11:44:04;;;;;;;1.83;1.45;;;;;;;;;;4974963;28;20085;-77
2023/10/15 11:46:30;;;;;;;2.15;0.98;;;;;;;;;;4973883;28;20046;-76
2023/10/15 11:49:01;;;;;;;2.58;0.90;;;;;;;;;;4973443;28;20058;-76
2023/10/15 11:51:30;;;;;;;6.18;1.33;;;;;;;;;;4943045;28;20050;-76
2023/10/15 11:54:00;;;;;;;0.90;0.80;;;;;;;;;;4974582;28;20053;-75
2023/10/15 11:56:26;;;;;;;1.80;0.90;;;;;;;;;;4974540;28;20042;-76
2023/10/15 11:58:53;;;;;;;2.22;1.17;;;;;;;;;;4973736;28;20146;-75
2023/10/15 12:01:18;;;;;;;3.42;1.17;;;;;;;;;;4975211;28;20042;-77
2023/10/15 12:03:44;;;;;;;2.65;1.58;;;;;;;;;;4975579;28;20058;-77
2023/10/15 12:06:09;;;;;;;1.60;1.45;;;;;;;;;;4973714;28;20046;-76
2023/10/15 12:08:35;;;;;;;2.10;1.23;;;;;;;;;;4989749;28;20050;-77
2023/10/15 12:11:00;;;;;;;2.72;1.02;;;;;;;;;;4972336;28;20046;-77
2023/10/15 12:13:26;;;;;;;4.50;1.10;;;;;;;;;;4973456;28;20109;-76
2023/10/15 12:15:52;;;;;;;1.30;1.10;;;;;;;;;;4975231;28;20312;-76
2023/10/15 12:18:18;;;;;;;1.38;1.13;;;;;;;;;;4975911;28;20042;-76
2023/10/15 12:20:43;;;;;;;2.40;1.00;;;;;;;;;;4974297;28;20423;-76
2023/10/15 12:23:09;;;;;;;3.22;0.90;;;;;;;;;;4975611;28;20156;-77
2023/10/15 12:25:38;;;;;;;0.85;0.80;;;;;;;;;;4975902;28;20054;-76
2023/10/15 12:28:04;;;;;;;5.43;1.70;;;;;;;;;;4975299;28;20069;-77
2023/10/15 12:30:32;;;;;;;2.65;1.33;;;;;;;;;;4977165;28;20058;-77
2023/10/15 12:33:00;;;;;;;0.98;0.95;;;;;;;;;;4977298;28;20038;-77
2023/10/15 12:35:30;;;;;;;1.63;1.17;;;;;;;;;;4964713;28;20042;-78
2023/10/15 12:38:01;;;;;;;3.08;0.85;;;;;;;;;;4987993;28;20053;-77
2023/10/15 12:40:36;;;;;;;1.83;1.10;;;;;;;;;;4983141;28;20136;-77
2023/10/15 12:43:08;;;;;;;1.42;0.90;;;;;;;;;;4984441;28;20049;-78
2023/10/15 12:45:35;;;;;;;0.70;0.60;;;;;;;;;;4982003;28;20086;-77
2023/10/15 12:48:02;;;;;;;1.52;0.90;;;;;;;;;;4983541;28;20058;-79
2023/10/15 12:50:31;;;;;;;1.52;0.70;;;;;;;;;;4986340;28;20053;-79
2023/10/15 12:52:58;;;;;;;1.25;0.85;;;;;;;;;;4966005;28;20062;-76
2023/10/15 12:55:23;;;;;;;2.15;0.90;;;;;;;;;;4980012;28;20145;-78
2023/10/15 12:57:50;;;;;;;5.47;1.00;;;;;;;;;;4983038;28;20121;-79
2023/10/15 13:00:21;;;;;;;1.65;1.02;;;;;;;;;;4985083;28;20080;-77
2023/10/15 13:02:51;;;;;;;0.80;0.60;;;;;;;;;;4986308;28;20069;-80
2023/10/15 13:05:24;;;;;;;1.10;0.90;;;;;;;;;;4976117;28;20038;-79
2023/10/15 13:07:50;;;;;;;2.00;0.73;;;;;;;;;;4965479;28;20134;-79
2023/10/15 13:10:20;;;;;;;3.42;1.00;;;;;;;;;;4987519;28;20054;-77
2023/10/15 13:12:50;;;;;;;2.72;0.90;;;;;;;;;;4984563;28;20073;-77
2023/10/15 13:15:18;;;;;;;2.03;0.90;;;;;;;;;;4992180;28;20054;-77
2023/10/15 13:17:49;;;;;;;2.33;1.13;;;;;;;;;;4989200;28;20061;-76
2023/10/15 13:20:17;;;;;;;1.00;0.90;;;;;;;;;;4981021;28;20046;-76
2023/10/15 13:22:44;;;;;;;1.98;1.20;;;;;;;;;;4980763;28;20053;-77
2023/10/15 13:25:11;;;;;;;1.92;0.90;;;;;;;;;;4980824;28;20069;-77
2023/10/15 13:27:38;;;;;;;2.45;1.17;;;;;;;;;;4979054;28;20053;-77
2023/10/15 13:30:04;;;;;;;3.28;1.17;;;;;;;;;;4981329;28;20121;-77
2023/10/15 13:32:30;;;;;;;1.40;1.10;;;;;;;;;;4979562;28;20043;-76
2023/10/15 13:34:55;;;;;;;1.85;0.93;;;;;;;;;;4972800;28;20420;-78
2023/10/15 13:37:21;;;;;;;1.08;0.98;;;;;;;;;;4993959;28;20113;-78
2023/10/15 13:39:49;;;;;;;2.30;1.48;;;;;;;;;;4975453;28;20050;-77
2023/10/15 13:42:16;;;;;;;3.20;0.90;;;;;;;;;;4978968;28;20050;-77
2023/10/15 13:44:42;;;;;;;3.53;1.08;;;;;;;;;;4978913;28;20042;-78
2023/10/15 13:47:08;;;;;;;1.63;1.25;;;;;;;;;;4976339;28;20564;-77
2023/10/15 13:49:34;;;;;;;6.35;2.92;;;;;;;;;;4978076;28;20531;-77
2023/10/15 13:51:59;;;;;;;3.65;1.67;;;;;;;;;;4977419;28;20054;-75
2023/10/15 13:54:26;;;;;;;1.45;0.75;;;;;;;;;;4977944;28;20054;-73
2023/10/15 13:56:52;;;;;;;1.70;0.85;;;;;;;;;;4978653;28;20050;-74
2023/10/15 13:59:20;;;;;;;2.10;0.90;;;;;;;;;;4976880;28;20054;-75
2023/10/15 14:01:46;;;;;;;1.00;0.88;;;;;;;;;;4978443;28;20058;-75
2023/10/15 14:04:12;;;;;;;0.85;0.75;;;;;;;;;;4976807;28;20050;-75
2023/10/15 14:06:38;;;;;;;2.33;0.90;;;;;;;;;;4978433;28;20042;-75
2023/10/15 14:09:08;;;;;;;0.93;0.70;;;;;;;;;;4961949;28;20051;-77
2023/10/15 14:11:33;;;;;;;1.92;0.90;;;;;;;;;;4981848;28;20043;-78
2023/10/15 14:13:59;;;;;;;2.30;0.80;;;;;;;;;;4979884;28;20046;-77
2023/10/15 14:16:24;;;;;;;1.75;1.17;;;;;;;;;;4978364;28;20050;-75
2023/10/15 14:18:51;;;;;;;3.88;0.90;;;;;;;;;;4974818;28;21497;-76
2023/10/15 14:21:17;;;;;;;4.40;1.10;;;;;;;;;;4976532;28;20082;-75
2023/10/15 14:23:43;;;;;;;4.60;0.93;;;;;;;;;;4981581;28;20038;-75
2023/10/15 14:26:09;;;;;;;2.92;1.40;;;;;;;;;;4979202;28;20053;-74
2023/10/15 14:28:35;;;;;;;3.75;0.90;;;;;;;;;;4970059;28;20049;-75
2023/10/15 14:31:00;;;;;;;1.05;1.00;;;;;;;;;;4986337;28;20046;-75
2023/10/15 14:33:26;;;;;;;1.80;0.95;;;;;;;;;;4978068;28;20104;-76
2023/10/15 14:35:52;;;;;;;1.65;0.80;;;;;;;;;;4977557;28;20117;-75
2023/10/15 14:38:18;;;;;;;0.63;0.63;;;;;;;;;;4977310;28;20049;-77
2023/10/15 14:40:44;;;;;;;1.30;0.75;;;;;;;;;;4976742;28;20507;-77
2023/10/15 14:43:10;;;;;;;0.65;0.60;;;;;;;;;;4979007;28;20080;-77
2023/10/15 14:45:36;;;;;;;4.47;0.80;;;;;;;;;;4975295;28;20566;-74
2023/10/15 14:48:03;;;;;;;1.30;0.60;;;;;;;;;;4976816;28;20456;-76
2023/10/15 14:50:29;;;;;;;1.33;0.90;;;;;;;;;;4978098;28;20050;-77
2023/10/15 14:52:54;;;;;;;1.17;0.80;;;;;;;;;;4979067;28;20053;-76
2023/10/15 14:55:19;;;;;;;2.92;0.80;;;;;;;;;;4978458;28;20053;-76
2023/10/15 14:57:45;;;;;;;2.67;0.73;;;;;;;;;;4976664;28;20046;-76
2023/10/15 15:00:14;;;;;;;3.67;1.23;;;;;;;;;;4976781;28;20054;-76
2023/10/15 15:02:45;;;;;;;2.88;0.70;;;;;;;;;;4976782;28;20097;-75
2023/10/15 15:05:11;;;;;;;0.88;0.70;;;;;;;;;;4976727;28;20065;-77
2023/10/15 15:07:37;;;;;;;2.08;0.85;;;;;;;;;;4975404;28;20495;-76
2023/10/15 15:10:03;;;;;;;4.82;1.00;;;;;;;;;;4989580;28;20145;-77